Time;durP1;ratioP1;P1;durP2;ratioP2;P2;SDS_P1;SDS_P2;PMS_P1;PMS_P2;Temp;Humidity;BMP_temperature;BMP_pressure;BME280_temperature;BME280_humidity;BME280_pressure;Samples;Min_cycle;Max_cycle;Signal;HPM_P1;HPM_P2
2021/08/08 00:00:09;;;;;;;1.47;1.20;;;15.40;99.90;;;;;;6205179;23;20607;-95
2021/08/08 00:02:38;;;;;;;3.90;1.07;;;15.50;99.90;;;;;;6205914;23;20606;-95
2021/08/08 00:05:07;;;;;;;1.37;1.10;;;15.50;99.90;;;;;;6204335;23;20629;-95
2021/08/08 00:07:34;;;;;;;0.90;0.90;;;15.60;99.90;;;;;;6203946;23;20599;-95
2021/08/08 00:10:03;;;;;;;1.67;1.03;;;15.60;99.90;;;;;;6205149;23;20658;-95
2021/08/08 00:12:31;;;;;;;9.07;1.40;;;15.60;99.90;;;;;;6203958;23;20645;-96
2021/08/08 00:15:00;;;;;;;4.40;0.83;;;15.70;99.90;;;;;;6203351;23;20552;-95
2021/08/08 00:17:29;;;;;;;1.40;0.90;;;15.70;99.90;;;;;;6201671;23;20579;-94
2021/08/08 00:19:57;;;;;;;2.77;1.20;;;15.60;99.90;;;;;;6203875;23;20644;-95
2021/08/08 00:22:25;;;;;;;1.87;0.97;;;15.70;99.90;;;;;;6203151;23;20575;-94
2021/08/08 00:24:55;;;;;;;2.67;1.10;;;15.70;99.90;;;;;;6176897;23;20597;-95
2021/08/08 00:27:24;;;;;;;3.80;1.30;;;15.70;99.90;;;;;;6204824;23;20583;-95
2021/08/08 00:30:06;;;;;;;1.30;1.20;;;15.70;99.90;;;;;;6203153;23;20623;-95
2021/08/08 00:32:33;;;;;;;1.80;0.83;;;15.70;99.90;;;;;;6203195;23;20633;-95
2021/08/08 00:35:01;;;;;;;3.47;1.40;;;15.70;99.90;;;;;;6204507;23;20583;-95
2021/08/08 00:37:28;;;;;;;1.90;0.97;;;15.70;99.90;;;;;;6205750;23;21108;-96
2021/08/08 00:40:02;;;;;;;5.43;1.27;;;15.60;99.90;;;;;;6205880;23;20619;-94
2021/08/08 00:42:35;;;;;;;2.10;1.13;;;15.60;99.90;;;;;;6179625;23;20614;-95
2021/08/08 00:45:03;;;;;;;5.73;1.40;;;15.60;99.90;;;;;;6207181;23;20643;-95
2021/08/08 00:47:34;;;;;;;2.23;1.13;;;15.70;99.90;;;;;;6206633;23;20587;-95
2021/08/08 00:50:03;;;;;;;2.57;0.90;;;15.60;99.90;;;;;;6207977;23;20611;-95
2021/08/08 00:52:33;;;;;;;3.60;1.20;;;15.60;99.90;;;;;;6207615;23;20598;-95
2021/08/08 00:55:00;;;;;;;1.03;0.90;;;15.60;99.90;;;;;;6207759;23;20599;-95
2021/08/08 00:57:31;;;;;;;3.47;1.73;;;15.60;99.90;;;;;;6208026;23;20589;-95
2021/08/08 01:00:07;;;;;;;6.03;1.20;;;15.60;99.90;;;;;;6208685;23;20623;-95
2021/08/08 01:02:38;;;;;;;2.23;0.90;;;15.70;99.90;;;;;;6181495;23;20594;-94
2021/08/08 01:05:29;;;;;;;6.30;1.33;;;15.70;99.90;;;;;;6182190;23;20572;-96
2021/08/08 01:08:05;;;;;;;2.13;1.10;;;15.70;99.90;;;;;;6199092;23;20588;-94
2021/08/08 01:10:39;;;;;;;2.67;0.90;;;15.70;99.90;;;;;;6206168;23;20653;-95
2021/08/08 01:13:12;;;;;;;1.27;1.10;;;15.70;99.90;;;;;;6205684;23;20583;-95
2021/08/08 01:15:47;;;;;;;2.60;1.23;;;15.80;99.90;;;;;;6208587;23;20843;-95
2021/08/08 01:18:17;;;;;;;2.50;1.00;;;15.70;99.90;;;;;;6207033;23;20589;-95
2021/08/08 01:20:50;;;;;;;0.87;0.77;;;15.70;99.90;;;;;;6208243;23;20620;-95
2021/08/08 01:23:36;;;;;;;3.37;1.00;;;15.80;99.90;;;;;;6207046;23;20626;-95
2021/08/08 01:26:06;;;;;;;0.80;0.80;;;15.80;99.90;;;;;;6207898;23;20594;-96
2021/08/08 01:28:37;;;;;;;2.97;1.00;;;15.90;99.90;;;;;;6207897;23;20626;-96
2021/08/08 01:31:06;;;;;;;1.23;0.90;;;15.90;99.90;;;;;;6206851;23;20646;-94
2021/08/08 01:33:45;;;;;;;2.20;0.90;;;15.80;99.90;;;;;;6206251;23;20592;-95
2021/08/08 01:36:13;;;;;;;1.13;0.90;;;15.90;99.90;;;;;;6207998;23;20579;-95
2021/08/08 01:38:46;;;;;;;1.40;0.87;;;15.90;99.90;;;;;;6208091;23;20595;-95
2021/08/08 01:41:37;;;;;;;1.53;1.03;;;15.80;99.90;;;;;;6207388;23;20611;-95
2021/08/08 01:44:23;;;;;;;1.23;0.80;;;15.80;99.90;;;;;;6209397;23;20588;-96
2021/08/08 01:47:24;;;;;;;4.43;1.23;;;15.90;99.90;;;;;;6210927;23;20603;-96
2021/08/08 01:53:00;;;;;;;1.47;1.17;;;15.80;99.90;;;;;;6205922;23;20590;-95
2021/08/08 01:59:08;;;;;;;3.33;1.40;;;15.70;99.90;;;;;;6209330;23;20595;-95
2021/08/08 02:02:18;;;;;;;0.97;0.87;;;15.70;99.90;;;;;;6210422;23;20584;-95
2021/08/08 02:04:55;;;;;;;1.70;1.40;;;15.60;99.90;;;;;;6208236;23;20575;-96
2021/08/08 02:10:09;;;;;;;1.83;1.00;;;15.50;99.90;;;;;;6208567;23;20635;-95
2021/08/08 02:12:47;;;;;;;2.17;0.80;;;15.40;99.90;;;;;;6210781;23;20671;-95
2021/08/08 02:15:20;;;;;;;6.70;1.73;;;15.40;99.90;;;;;;6209996;23;20591;-96
2021/08/08 02:18:08;;;;;;;5.60;1.50;;;15.30;99.90;;;;;;6203328;23;20623;-96
2021/08/08 02:20:41;;;;;;;7.63;1.37;;;15.20;99.90;;;;;;6206724;23;20642;-96
2021/08/08 02:23:11;;;;;;;2.30;1.40;;;15.20;99.90;;;;;;6208713;23;20646;-96
2021/08/08 02:25:42;;;;;;;2.83;1.57;;;15.10;99.90;;;;;;6207459;23;20578;-95
2021/08/08 02:28:19;;;;;;;10.93;1.70;;;15.00;99.90;;;;;;6207418;23;20603;-96
2021/08/08 02:30:50;;;;;;;2.23;1.10;;;15.00;99.90;;;;;;6207636;23;20623;-95
2021/08/08 02:34:00;;;;;;;1.47;1.10;;;14.90;99.90;;;;;;6207817;23;20596;-95
2021/08/08 02:36:31;;;;;;;3.00;1.07;;;14.80;99.90;;;;;;6208910;23;20600;-96
2021/08/08 02:39:03;;;;;;;7.30;1.50;;;14.70;99.90;;;;;;6208037;23;20587;-95
2021/08/08 02:41:33;;;;;;;1.37;1.10;;;14.70;99.90;;;;;;6208703;23;20638;-95
2021/08/08 02:47:11;;;;;;;3.23;1.07;;;14.70;99.90;;;;;;6209036;23;20583;-96
2021/08/08 02:49:39;;;;;;;2.70;1.40;;;14.70;99.90;;;;;;6207146;23;20702;-94
2021/08/08 02:52:10;;;;;;;1.53;1.40;;;14.60;99.90;;;;;;6207843;23;20599;-95
2021/08/08 02:54:42;;;;;;;4.60;1.47;;;14.60;99.90;;;;;;6208186;23;20592;-95
2021/08/08 02:57:11;;;;;;;3.30;1.40;;;14.60;99.90;;;;;;6209152;23;20603;-95
2021/08/08 02:59:42;;;;;;;1.27;1.17;;;14.50;99.90;;;;;;6205040;23;20623;-95
2021/08/08 03:02:12;;;;;;;2.00;1.23;;;14.50;99.90;;;;;;6205472;23;20590;-95
2021/08/08 03:04:44;;;;;;;3.17;1.20;;;14.40;99.90;;;;;;6179551;23;20571;-95
2021/08/08 03:07:12;;;;;;;4.53;1.43;;;14.40;99.90;;;;;;6204888;23;20610;-96
2021/08/08 03:09:40;;;;;;;1.53;1.43;;;14.30;99.90;;;;;;6205274;23;20654;-95
2021/08/08 03:12:19;;;;;;;7.73;1.37;;;14.20;99.90;;;;;;6204499;23;20584;-95
2021/08/08 03:14:50;;;;;;;5.37;1.20;;;14.30;99.90;;;;;;6204624;23;20578;-96
2021/08/08 03:17:21;;;;;;;1.83;1.40;;;14.10;99.90;;;;;;6204471;23;20659;-96
2021/08/08 03:19:51;;;;;;;1.50;1.40;;;14.10;99.90;;;;;;6202947;23;20623;-96
2021/08/08 03:22:36;;;;;;;3.83;1.30;;;14.00;99.90;;;;;;6203395;23;20611;-95
2021/08/08 03:25:05;;;;;;;2.50;1.60;;;14.00;99.90;;;;;;6201427;23;20620;-94
2021/08/08 03:27:33;;;;;;;1.40;1.03;;;13.90;99.90;;;;;;6202540;23;20680;-95
2021/08/08 03:30:06;;;;;;;2.30;1.47;;;13.90;99.90;;;;;;6201967;23;20607;-95
2021/08/08 03:32:35;;;;;;;3.53;1.27;;;13.80;99.90;;;;;;6176510;23;20575;-96
2021/08/08 03:35:03;;;;;;;3.07;1.37;;;13.80;99.90;;;;;;6201773;23;20638;-96
2021/08/08 03:37:31;;;;;;;5.03;1.30;;;13.70;99.90;;;;;;6202009;23;20630;-96
2021/08/08 03:39:58;;;;;;;3.63;1.53;;;13.80;99.90;;;;;;6200431;23;20579;-95
2021/08/08 03:42:26;;;;;;;3.93;1.20;;;13.70;99.90;;;;;;6173602;23;20611;-95
2021/08/08 03:44:55;;;;;;;2.80;1.57;;;13.60;99.90;;;;;;6198891;23;20634;-94
2021/08/08 03:47:22;;;;;;;5.07;1.20;;;13.60;99.90;;;;;;6200522;23;20579;-95
2021/08/08 03:49:52;;;;;;;3.63;1.17;;;13.60;99.90;;;;;;6200610;23;20614;-95
2021/08/08 03:52:19;;;;;;;1.80;1.40;;;13.60;99.90;;;;;;6199254;23;20599;-94
2021/08/08 03:54:47;;;;;;;2.20;1.27;;;13.60;99.90;;;;;;6199238;23;20615;-95
2021/08/08 03:57:16;;;;;;;5.23;1.73;;;13.70;99.90;;;;;;6200227;23;20595;-95
2021/08/08 03:59:44;;;;;;;1.63;0.97;;;13.60;99.90;;;;;;6200414;23;20521;-95
2021/08/08 04:02:12;;;;;;;2.50;1.27;;;13.60;99.90;;;;;;6198547;23;21196;-95
2021/08/08 04:04:39;;;;;;;3.30;0.80;;;13.60;99.90;;;;;;6173719;23;20616;-96
2021/08/08 04:07:08;;;;;;;2.10;1.03;;;13.60;99.90;;;;;;6198459;23;20602;-95
2021/08/08 04:09:42;;;;;;;1.90;1.10;;;13.60;99.90;;;;;;6199107;23;20984;-94
2021/08/08 04:12:11;;;;;;;3.33;1.10;;;13.50;99.90;;;;;;6198946;23;20634;-95
2021/08/08 04:14:42;;;;;;;2.13;1.23;;;13.50;99.90;;;;;;6200135;23;21136;-95
2021/08/08 04:17:10;;;;;;;1.23;0.60;;;13.50;99.90;;;;;;6202487;23;20662;-95
2021/08/08 04:19:37;;;;;;;1.80;1.10;;;13.50;99.90;;;;;;6202797;23;20590;-93
2021/08/08 04:22:04;;;;;;;1.63;1.10;;;13.50;99.90;;;;;;6203581;23;20583;-94
2021/08/08 04:24:49;;;;;;;2.13;1.10;;;13.50;99.90;;;;;;6202525;23;20627;-95
2021/08/08 04:27:16;;;;;;;3.63;1.07;;;13.50;99.90;;;;;;6202172;23;21102;-95
2021/08/08 04:29:43;;;;;;;1.30;1.20;;;13.50;99.90;;;;;;6202609;23;20614;-95
2021/08/08 04:32:15;;;;;;;1.47;1.20;;;13.50;99.90;;;;;;6177741;23;20593;-96
2021/08/08 04:34:42;;;;;;;1.90;1.20;;;13.50;99.90;;;;;;6204550;23;20634;-96
2021/08/08 04:37:10;;;;;;;2.10;0.90;;;13.50;99.90;;;;;;6201197;23;20619;-95
2021/08/08 04:39:39;;;;;;;1.73;1.30;;;13.50;99.90;;;;;;6202971;23;21163;-95
2021/08/08 04:42:15;;;;;;;1.60;1.17;;;13.50;99.90;;;;;;6204502;23;20610;-95
2021/08/08 04:44:42;;;;;;;3.20;1.30;;;13.50;99.90;;;;;;6203163;23;21183;-96
2021/08/08 04:47:12;;;;;;;3.00;1.50;;;13.40;99.90;;;;;;6202886;23;20602;-95
2021/08/08 04:49:40;;;;;;;3.20;1.33;;;13.40;99.90;;;;;;6203598;23;20575;-95
2021/08/08 04:52:11;;;;;;;5.73;1.87;;;13.50;99.90;;;;;;6206985;23;20634;-94
2021/08/08 04:54:44;;;;;;;1.50;1.07;;;13.60;99.90;;;;;;6206356;23;21180;-95
2021/08/08 04:57:11;;;;;;;4.17;1.30;;;13.60;99.90;;;;;;6204915;23;20584;-95
2021/08/08 04:59:39;;;;;;;3.03;1.30;;;13.60;99.90;;;;;;6179541;23;20606;-95
2021/08/08 05:02:08;;;;;;;2.20;1.10;;;13.60;99.90;;;;;;6206212;23;20633;-95
2021/08/08 05:04:38;;;;;;;2.10;1.33;;;13.60;99.90;;;;;;6184230;23;20658;-93
2021/08/08 05:07:05;;;;;;;3.33;1.40;;;13.70;99.90;;;;;;6181558;23;20590;-93
2021/08/08 05:09:32;;;;;;;4.70;1.47;;;13.70;99.90;;;;;;6183157;23;20708;-94
2021/08/08 05:12:00;;;;;;;1.43;1.10;;;13.70;99.90;;;;;;6183414;23;20611;-94
2021/08/08 05:14:29;;;;;;;2.97;1.50;;;13.80;99.90;;;;;;6183364;23;20642;-94
2021/08/08 05:16:56;;;;;;;3.60;1.30;;;13.80;99.90;;;;;;6185944;23;20588;-95
2021/08/08 05:19:23;;;;;;;1.77;0.97;;;13.80;99.90;;;;;;6187585;23;20586;-95
2021/08/08 05:21:51;;;;;;;4.97;1.50;;;13.90;99.90;;;;;;6193972;23;20619;-94
2021/08/08 05:24:20;;;;;;;3.73;1.50;;;13.90;99.90;;;;;;6186810;23;21183;-95
2021/08/08 05:26:49;;;;;;;4.70;1.43;;;14.00;99.90;;;;;;6186096;23;20594;-95
2021/08/08 05:29:19;;;;;;;2.33;1.30;;;14.10;99.90;;;;;;6186799;23;20615;-95
2021/08/08 05:31:49;;;;;;;2.53;1.27;;;14.10;99.90;;;;;;6188433;23;20603;-96
2021/08/08 05:34:17;;;;;;;2.10;1.13;;;14.10;99.90;;;;;;6186286;23;20956;-95
2021/08/08 05:36:44;;;;;;;3.20;1.37;;;14.20;99.90;;;;;;6187035;23;20675;-95
2021/08/08 05:39:15;;;;;;;2.20;1.00;;;14.30;99.90;;;;;;6188618;23;20591;-94
2021/08/08 05:41:42;;;;;;;1.53;1.43;;;14.40;99.90;;;;;;6156130;23;20662;-95
2021/08/08 05:44:09;;;;;;;4.60;1.40;;;14.50;99.90;;;;;;6154884;23;20616;-94
2021/08/08 05:46:37;;;;;;;2.60;1.50;;;14.60;99.90;;;;;;6154445;23;20643;-94
2021/08/08 05:49:05;;;;;;;5.53;1.50;;;14.70;99.90;;;;;;6154888;23;20584;-95
2021/08/08 05:51:35;;;;;;;6.87;1.87;;;14.80;99.90;;;;;;6154331;23;20618;-95
2021/08/08 05:54:02;;;;;;;4.20;1.77;;;14.80;99.90;;;;;;6153958;23;20612;-94
2021/08/08 05:56:29;;;;;;;2.80;1.60;;;14.90;99.90;;;;;;6155188;23;20580;-96
2021/08/08 05:58:56;;;;;;;3.20;2.00;;;14.90;99.90;;;;;;6155284;23;20684;-95
2021/08/08 06:01:23;;;;;;;5.93;2.00;;;15.00;99.90;;;;;;6156007;23;20584;-96
2021/08/08 06:03:55;;;;;;;3.70;1.60;;;15.10;99.90;;;;;;6157340;23;21003;-94
2021/08/08 06:06:22;;;;;;;7.33;1.27;;;15.20;99.90;;;;;;6152078;23;20710;-92
2021/08/08 06:08:50;;;;;;;4.63;1.07;;;15.30;99.90;;;;;;6150932;23;20594;-94
2021/08/08 06:11:17;;;;;;;5.07;2.33;;;15.30;99.90;;;;;;6152094;23;20565;-94
2021/08/08 06:13:44;;;;;;;3.00;1.30;;;15.40;99.90;;;;;;6151043;23;20577;-94
2021/08/08 06:16:11;;;;;;;1.43;1.20;;;15.50;99.90;;;;;;6149501;23;20947;-94
2021/08/08 06:18:37;;;;;;;3.17;1.30;;;15.70;99.90;;;;;;6144866;23;20671;-94
2021/08/08 06:21:06;;;;;;;2.13;1.00;;;15.80;99.90;;;;;;6148504;23;20592;-94
2021/08/08 06:23:32;;;;;;;6.00;1.40;;;15.90;99.90;;;;;;6150880;23;20588;-93
2021/08/08 06:25:59;;;;;;;3.77;1.00;;;16.00;99.90;;;;;;6153245;23;20695;-95
2021/08/08 06:28:26;;;;;;;3.40;0.90;;;16.10;99.90;;;;;;6151328;23;20553;-94
2021/08/08 06:30:53;;;;;;;5.63;1.20;;;16.20;99.90;;;;;;6152370;23;20610;-93
2021/08/08 06:33:21;;;;;;;3.10;1.33;;;16.30;99.90;;;;;;6152011;23;20599;-93
2021/08/08 06:35:49;;;;;;;2.93;0.90;;;16.40;99.90;;;;;;6151989;23;20639;-93
2021/08/08 06:38:17;;;;;;;3.60;1.20;;;16.40;99.90;;;;;;6150142;23;20676;-93
2021/08/08 06:40:44;;;;;;;1.77;0.97;;;16.60;99.90;;;;;;6150805;23;20596;-94
2021/08/08 06:43:13;;;;;;;6.77;1.60;;;16.70;99.90;;;;;;6124695;23;20960;-94
2021/08/08 06:45:39;;;;;;;4.33;1.03;;;16.80;99.90;;;;;;6150719;23;20624;-93
2021/08/08 06:48:06;;;;;;;3.97;0.90;;;16.90;99.90;;;;;;6149451;23;20608;-94
2021/08/08 06:50:33;;;;;;;3.53;1.30;;;17.00;99.90;;;;;;6150027;23;20913;-94
2021/08/08 06:53:00;;;;;;;6.63;1.10;;;17.00;99.90;;;;;;6150261;23;20568;-94
2021/08/08 06:55:28;;;;;;;1.03;0.83;;;17.10;99.90;;;;;;6151592;23;20647;-93
2021/08/08 06:58:01;;;;;;;1.97;0.90;;;17.20;99.90;;;;;;6149619;23;20629;-93
2021/08/08 07:00:28;;;;;;;3.13;0.83;;;17.40;99.90;;;;;;6150364;23;20584;-95
2021/08/08 07:02:54;;;;;;;1.20;0.60;;;17.40;99.90;;;;;;6150792;23;20856;-94
2021/08/08 07:05:21;;;;;;;2.13;0.60;;;17.60;99.90;;;;;;6146584;23;21049;-94
2021/08/08 07:07:48;;;;;;;1.43;0.60;;;17.70;99.90;;;;;;6148470;23;21059;-96
2021/08/08 07:10:15;;;;;;;3.80;1.33;;;17.70;99.90;;;;;;6150816;23;20629;-94
2021/08/08 07:12:43;;;;;;;1.80;1.47;;;17.80;99.90;;;;;;6120969;23;20612;-93
2021/08/08 07:15:11;;;;;;;2.53;0.77;;;18.00;99.90;;;;;;6145271;23;20628;-94
2021/08/08 07:17:38;;;;;;;2.00;0.73;;;18.10;99.90;;;;;;6147634;23;20682;-94
2021/08/08 07:20:07;;;;;;;5.73;2.23;;;18.20;99.90;;;;;;6150924;23;20592;-94
2021/08/08 07:22:34;;;;;;;1.20;0.87;;;18.30;99.90;;;;;;6147890;23;21473;-95
2021/08/08 07:25:01;;;;;;;3.87;1.10;;;18.30;99.90;;;;;;6149760;23;20608;-95
2021/08/08 07:27:29;;;;;;;3.20;0.80;;;18.40;99.90;;;;;;6149135;23;21483;-95
2021/08/08 07:29:57;;;;;;;1.30;0.60;;;18.50;99.90;;;;;;6149466;23;21150;-95
2021/08/08 07:32:25;;;;;;;2.30;0.77;;;18.50;99.90;;;;;;6149807;23;20588;-94
2021/08/08 07:34:52;;;;;;;2.97;0.90;;;18.50;99.90;;;;;;6145428;23;20667;-94
2021/08/08 07:37:21;;;;;;;1.67;0.87;;;18.70;99.90;;;;;;6146793;23;20687;-94
2021/08/08 07:39:48;;;;;;;1.10;0.80;;;18.80;99.90;;;;;;6147458;23;21120;-95
2021/08/08 07:42:15;;;;;;;2.20;1.10;;;18.90;99.90;;;;;;6145491;23;20640;-94
2021/08/08 07:44:42;;;;;;;2.80;0.93;;;19.10;99.90;;;;;;6121712;23;20608;-94
2021/08/08 07:47:16;;;;;;;3.60;0.97;;;19.20;99.90;;;;;;6149591;23;20654;-94
2021/08/08 07:49:44;;;;;;;2.10;0.60;;;19.30;99.90;;;;;;6149854;23;21155;-94
2021/08/08 07:52:11;;;;;;;1.50;0.90;;;19.30;99.90;;;;;;6151082;23;20659;-95
2021/08/08 07:54:38;;;;;;;1.73;0.90;;;19.50;99.90;;;;;;6151302;23;20594;-94
2021/08/08 07:57:06;;;;;;;2.20;1.00;;;19.50;99.90;;;;;;6151530;23;20592;-94
2021/08/08 07:59:33;;;;;;;2.50;1.17;;;19.60;99.90;;;;;;6149694;23;20576;-94
2021/08/08 08:02:00;;;;;;;1.07;0.90;;;19.60;99.90;;;;;;6148143;23;20586;-93
2021/08/08 08:04:28;;;;;;;1.87;0.83;;;19.60;99.90;;;;;;6147504;23;20580;-94
2021/08/08 08:07:04;;;;;;;1.10;0.90;;;19.60;99.90;;;;;;6149236;23;20700;-94
2021/08/08 08:09:30;;;;;;;2.67;1.00;;;19.60;99.90;;;;;;6150600;23;21444;-95
2021/08/08 08:11:59;;;;;;;2.13;0.83;;;19.80;99.90;;;;;;6149968;23;20614;-95
2021/08/08 08:14:27;;;;;;;1.80;1.00;;;19.90;99.90;;;;;;6124671;23;21128;-94
2021/08/08 08:16:54;;;;;;;1.40;0.90;;;20.10;99.90;;;;;;6148737;23;20588;-93
2021/08/08 08:19:21;;;;;;;3.13;0.93;;;20.10;99.90;;;;;;6147859;23;20642;-94
2021/08/08 08:21:50;;;;;;;2.50;1.00;;;20.20;99.90;;;;;;6150537;23;20576;-93
2021/08/08 08:24:17;;;;;;;1.43;0.90;;;20.30;99.90;;;;;;6150477;23;20600;-94
2021/08/08 08:26:44;;;;;;;3.00;1.00;;;20.30;99.90;;;;;;6150146;23;20556;-94
2021/08/08 08:29:11;;;;;;;2.40;1.10;;;20.50;99.90;;;;;;6149975;23;20692;-95
2021/08/08 08:31:38;;;;;;;2.43;1.00;;;20.70;99.90;;;;;;6150571;23;20621;-92
2021/08/08 08:34:05;;;;;;;4.10;1.20;;;20.70;99.90;;;;;;6150151;23;20592;-94
2021/08/08 08:36:32;;;;;;;1.17;0.67;;;20.90;99.90;;;;;;6124464;23;20624;-94
2021/08/08 08:39:02;;;;;;;3.50;1.10;;;21.00;99.90;;;;;;6150965;23;21166;-92
2021/08/08 08:41:31;;;;;;;2.83;0.70;;;21.20;99.90;;;;;;6150543;23;20584;-94
2021/08/08 08:43:59;;;;;;;1.40;0.90;;;21.30;99.90;;;;;;6151205;23;20591;-94
2021/08/08 08:46:27;;;;;;;3.37;0.70;;;21.40;99.90;;;;;;6150350;23;20642;-93
2021/08/08 08:48:56;;;;;;;3.07;0.83;;;21.40;99.90;;;;;;6149410;23;20521;-93
2021/08/08 08:51:29;;;;;;;1.47;0.80;;;21.40;99.90;;;;;;6152079;23;21153;-94
2021/08/08 08:53:57;;;;;;;1.00;0.70;;;21.30;99.90;;;;;;6149915;23;20685;-94
2021/08/08 08:56:28;;;;;;;0.80;0.67;;;21.30;99.90;;;;;;6150672;23;20604;-95
2021/08/08 08:58:58;;;;;;;2.03;1.07;;;21.30;99.90;;;;;;6150932;23;20530;-95
2021/08/08 09:01:25;;;;;;;1.77;0.67;;;21.30;99.90;;;;;;6149079;23;20557;-94
2021/08/08 09:03:52;;;;;;;0.73;0.63;;;21.30;99.90;;;;;;6148021;23;20576;-94
2021/08/08 09:06:19;;;;;;;3.67;0.83;;;21.30;99.90;;;;;;6148193;23;20627;-94
2021/08/08 09:08:47;;;;;;;1.20;0.77;;;21.40;99.90;;;;;;6147057;23;21005;-94
2021/08/08 09:11:15;;;;;;;3.83;1.10;;;21.40;99.90;;;;;;6148420;23;20521;-94
2021/08/08 09:13:53;;;;;;;2.93;1.23;;;21.50;99.90;;;;;;6154889;23;20620;-94
2021/08/08 09:16:21;;;;;;;4.20;1.10;;;21.50;99.90;;;;;;6150424;23;20670;-94
2021/08/08 09:18:51;;;;;;;0.87;0.73;;;21.50;99.90;;;;;;6150160;23;20569;-93
2021/08/08 09:21:19;;;;;;;3.33;1.30;;;21.50;99.90;;;;;;6150245;23;20651;-92
2021/08/08 09:23:55;;;;;;;1.20;1.00;;;21.50;99.90;;;;;;6149628;23;20565;-94
2021/08/08 09:26:31;;;;;;;1.10;0.87;;;21.50;99.90;;;;;;6124663;23;20627;-94
2021/08/08 09:29:09;;;;;;;1.50;0.63;;;21.60;99.90;;;;;;6149136;23;20622;-94
2021/08/08 09:31:41;;;;;;;1.30;1.07;;;21.60;99.90;;;;;;6123624;23;20589;-93
2021/08/08 09:34:09;;;;;;;1.50;0.50;;;21.60;99.90;;;;;;6150140;23;20568;-93
2021/08/08 09:36:43;;;;;;;1.43;0.70;;;21.60;99.90;;;;;;6149293;23;21365;-94
2021/08/08 09:39:10;;;;;;;1.17;0.70;;;21.80;99.90;;;;;;6150100;23;20650;-94
2021/08/08 09:41:37;;;;;;;2.97;0.97;;;21.90;99.90;;;;;;6123652;23;21206;-94
2021/08/08 09:44:09;;;;;;;1.40;0.67;;;22.00;99.90;;;;;;6149827;23;20588;-95
2021/08/08 09:46:36;;;;;;;2.47;0.70;;;22.10;99.90;;;;;;6149354;23;20620;-95
2021/08/08 09:49:10;;;;;;;2.23;1.30;;;22.40;99.90;;;;;;6149970;23;20521;-95
2021/08/08 09:51:49;;;;;;;1.87;1.10;;;22.60;99.90;;;;;;6150058;23;20588;-95
2021/08/08 09:54:16;;;;;;;1.27;0.80;;;22.80;99.90;;;;;;6150881;23;20615;-95
2021/08/08 09:56:43;;;;;;;1.63;0.60;;;23.00;99.90;;;;;;6151004;23;20639;-95
2021/08/08 09:59:11;;;;;;;1.87;0.90;;;23.20;99.90;;;;;;6150009;23;20552;-95
2021/08/08 10:01:40;;;;;;;2.40;1.10;;;23.50;99.90;;;;;;6145887;23;20569;-95
2021/08/08 10:04:07;;;;;;;1.50;1.17;;;23.60;99.90;;;;;;6146553;23;20594;-94
2021/08/08 10:06:35;;;;;;;3.03;0.90;;;23.70;99.90;;;;;;6145405;23;20616;-94
2021/08/08 10:09:07;;;;;;;1.60;0.70;;;23.90;98.20;;;;;;6145106;23;20588;-95
2021/08/08 10:11:34;;;;;;;2.20;1.17;;;24.10;97.50;;;;;;6146000;23;20518;-94
2021/08/08 10:14:03;;;;;;;1.70;0.80;;;24.30;96.90;;;;;;6149782;23;20595;-95
2021/08/08 10:16:35;;;;;;;4.70;1.47;;;24.60;97.30;;;;;;6149229;23;20624;-95
2021/08/08 10:19:04;;;;;;;1.73;0.80;;;24.80;96.90;;;;;;6149338;23;20644;-94
2021/08/08 10:21:32;;;;;;;1.30;0.63;;;24.90;94.70;;;;;;6149616;23;20595;-95
2021/08/08 10:24:06;;;;;;;2.77;1.00;;;25.00;94.60;;;;;;6150846;23;20584;-94
2021/08/08 10:26:34;;;;;;;3.10;1.10;;;25.10;93.70;;;;;;6149677;23;20609;-94
2021/08/08 10:29:02;;;;;;;3.23;1.03;;;25.20;92.60;;;;;;6145910;23;20552;-95
2021/08/08 10:31:34;;;;;;;0.93;0.70;;;25.40;91.30;;;;;;6148933;23;20569;-93
2021/08/08 10:34:01;;;;;;;2.53;0.70;;;25.40;90.20;;;;;;6149378;23;20913;-94
2021/08/08 10:36:29;;;;;;;3.10;1.10;;;25.50;90.50;;;;;;6150402;23;21186;-95
2021/08/08 10:39:10;;;;;;;8.90;1.20;;;25.60;90.70;;;;;;6148248;23;20590;-96
2021/08/08 10:41:38;;;;;;;1.80;0.80;;;25.90;90.40;;;;;;6148670;23;21254;-95
2021/08/08 10:44:07;;;;;;;3.33;1.00;;;26.10;86.20;;;;;;6149536;23;21028;-95
2021/08/08 10:46:46;;;;;;;3.40;0.97;;;26.20;84.70;;;;;;6148385;23;20599;-94
2021/08/08 10:49:13;;;;;;;3.83;1.10;;;26.30;86.70;;;;;;6149093;23;20596;-95
2021/08/08 10:51:45;;;;;;;1.37;0.90;;;26.30;85.70;;;;;;6148699;23;20581;-94
2021/08/08 10:54:12;;;;;;;1.20;0.70;;;26.20;87.10;;;;;;6148642;23;20612;-95
2021/08/08 10:56:49;;;;;;;1.60;0.90;;;26.20;87.40;;;;;;6148918;23;20623;-94
2021/08/08 10:59:21;;;;;;;2.33;1.07;;;26.20;87.50;;;;;;6149543;23;20553;-94
2021/08/08 11:02:07;;;;;;;1.80;0.90;;;26.30;83.10;;;;;;6149660;23;20548;-94
2021/08/08 11:04:35;;;;;;;2.83;0.97;;;26.10;81.90;;;;;;6149437;23;20568;-95
2021/08/08 11:07:03;;;;;;;3.10;1.00;;;26.10;84.40;;;;;;6148412;23;20622;-95
2021/08/08 11:09:31;;;;;;;1.43;0.77;;;26.40;86.10;;;;;;6147912;23;20593;-95
2021/08/08 11:12:01;;;;;;;1.80;0.77;;;26.50;80.70;;;;;;6146779;23;20561;-95
2021/08/08 11:14:28;;;;;;;4.17;1.07;;;26.80;81.60;;;;;;6146514;23;20557;-95
2021/08/08 11:17:01;;;;;;;2.27;1.13;;;27.00;79.80;;;;;;6145059;23;21186;-96
2021/08/08 11:19:33;;;;;;;4.63;1.00;;;27.20;78.60;;;;;;6145618;23;20604;-94
2021/08/08 11:22:13;;;;;;;1.90;1.57;;;27.40;76.30;;;;;;6143516;23;20565;-95
2021/08/08 11:24:45;;;;;;;3.37;1.00;;;27.60;76.10;;;;;;6151260;23;20655;-96
2021/08/08 11:27:13;;;;;;;2.17;0.90;;;27.70;75.40;;;;;;6151187;23;20584;-95
2021/08/08 11:29:52;;;;;;;0.97;0.77;;;27.90;74.10;;;;;;6150695;23;20584;-95
2021/08/08 11:32:28;;;;;;;1.60;1.03;;;28.20;72.60;;;;;;6151251;23;20533;-94
2021/08/08 11:35:03;;;;;;;1.07;0.70;;;28.20;72.10;;;;;;6151341;23;20690;-95
2021/08/08 11:37:35;;;;;;;2.50;0.90;;;28.50;70.50;;;;;;6149794;23;20936;-96
2021/08/08 11:40:03;;;;;;;1.17;0.73;;;28.80;67.50;;;;;;6151280;23;20559;-95
2021/08/08 11:42:33;;;;;;;1.17;1.07;;;28.80;68.80;;;;;;6125109;23;20636;-95
2021/08/08 11:45:00;;;;;;;2.17;1.20;;;28.90;68.40;;;;;;6148230;23;20619;-93
2021/08/08 11:47:29;;;;;;;1.13;0.67;;;28.70;67.70;;;;;;6145131;23;20655;-94
2021/08/08 11:49:57;;;;;;;1.07;0.83;;;28.60;67.60;;;;;;6146552;23;20918;-94
2021/08/08 11:52:24;;;;;;;1.00;0.90;;;28.70;67.10;;;;;;6148764;23;20568;-93
2021/08/08 11:55:01;;;;;;;1.87;0.80;;;28.40;66.50;;;;;;6147255;23;21557;-94
2021/08/08 11:57:32;;;;;;;2.43;1.17;;;28.40;66.60;;;;;;6148001;23;20564;-95
2021/08/08 12:00:11;;;;;;;1.50;1.10;;;28.60;66.00;;;;;;6150953;23;20576;-95
2021/08/08 12:02:39;;;;;;;1.20;1.00;;;29.00;64.50;;;;;;6149556;23;20608;-95
2021/08/08 12:05:07;;;;;;;1.00;0.90;;;29.10;61.90;;;;;;6150092;23;20596;-94
2021/08/08 12:07:35;;;;;;;3.27;0.90;;;29.20;62.00;;;;;;6123607;23;20604;-95
2021/08/08 12:10:05;;;;;;;2.03;0.70;;;29.30;61.80;;;;;;6149629;23;20521;-95
2021/08/08 12:12:36;;;;;;;1.20;1.00;;;29.80;61.90;;;;;;6149558;23;20556;-95
2021/08/08 12:15:07;;;;;;;1.73;1.13;;;30.00;61.30;;;;;;6150474;23;20609;-95
2021/08/08 12:17:34;;;;;;;1.10;0.70;;;30.50;60.70;;;;;;6147776;23;20573;-95
2021/08/08 12:20:11;;;;;;;1.13;1.00;;;30.30;59.20;;;;;;6149318;23;20517;-94
2021/08/08 12:22:38;;;;;;;1.10;1.00;;;29.60;59.30;;;;;;6148180;23;20592;-93
2021/08/08 12:25:08;;;;;;;2.23;1.23;;;29.30;60.70;;;;;;6147263;23;20611;-94
2021/08/08 12:27:37;;;;;;;2.60;1.50;;;28.50;66.90;;;;;;6144874;23;20584;-94
2021/08/08 12:30:18;;;;;;;1.33;1.03;;;28.10;70.70;;;;;;6146012;23;20650;-95
2021/08/08 12:32:45;;;;;;;1.40;0.90;;;28.40;70.70;;;;;;6147116;23;20572;-95
2021/08/08 12:35:16;;;;;;;1.83;0.90;;;28.80;65.70;;;;;;6145847;23;20616;-95
2021/08/08 12:37:47;;;;;;;1.00;0.70;;;28.90;62.30;;;;;;6121540;23;21133;-94
2021/08/08 12:40:15;;;;;;;0.90;0.80;;;28.80;60.90;;;;;;6148710;23;20611;-93
2021/08/08 12:42:44;;;;;;;3.23;0.80;;;28.70;60.90;;;;;;6122542;23;20624;-94
2021/08/08 12:45:13;;;;;;;1.90;1.10;;;28.40;61.30;;;;;;6149266;23;20670;-94
2021/08/08 12:47:41;;;;;;;0.63;0.60;;;28.00;61.40;;;;;;6146223;23;21137;-93
2021/08/08 12:50:18;;;;;;;2.40;1.00;;;27.50;62.10;;;;;;6145399;23;21117;-94
2021/08/08 12:52:47;;;;;;;2.03;0.70;;;27.20;63.30;;;;;;6148292;23;20555;-93
2021/08/08 12:55:15;;;;;;;0.90;0.70;;;27.10;62.80;;;;;;6148748;23;20697;-94
2021/08/08 12:57:43;;;;;;;1.00;0.70;;;26.80;63.30;;;;;;6146423;23;20521;-94
2021/08/08 13:00:12;;;;;;;1.37;0.90;;;26.70;63.80;;;;;;6148694;23;20667;-94
2021/08/08 13:02:39;;;;;;;3.27;1.10;;;26.70;64.70;;;;;;6148871;23;20655;-94
2021/08/08 13:05:08;;;;;;;1.10;0.80;;;27.00;65.00;;;;;;6150255;23;20899;-94
2021/08/08 13:07:36;;;;;;;4.20;1.43;;;27.50;65.30;;;;;;6149116;23;20625;-94
2021/08/08 13:10:04;;;;;;;2.30;0.90;;;27.60;64.70;;;;;;6123310;23;20580;-96
2021/08/08 13:12:32;;;;;;;1.30;1.00;;;28.00;64.00;;;;;;6148777;23;21149;-95
2021/08/08 13:14:59;;;;;;;3.00;1.10;;;28.40;64.90;;;;;;6149695;23;20603;-96